createdAt,value
2022-07-25T00:00:30.488Z,0.00
2022-07-25T00:01:02.364Z,0.00
2022-07-25T00:01:34.218Z,0.00
2022-07-25T00:02:05.225Z,0.00
2022-07-25T00:02:37.497Z,0.00
2022-07-25T00:03:10.809Z,0.00
2022-07-25T00:03:36.323Z,0.00
2022-07-25T00:03:57.541Z,0.00
2022-07-25T00:04:30.292Z,0.00
2022-07-25T00:05:03.133Z,0.00
2022-07-25T00:05:37.765Z,0.00
2022-07-25T00:06:05.338Z,0.00
2022-07-25T00:06:37.662Z,0.00
2022-07-25T00:07:10.256Z,0.00
2022-07-25T00:07:36.644Z,0.00
2022-07-25T00:07:58.514Z,0.00
2022-07-25T00:08:29.630Z,0.00
2022-07-25T00:09:02.204Z,0.00
2022-07-25T00:09:33.508Z,0.00
2022-07-25T00:10:05.934Z,0.00
2022-07-25T00:10:37.537Z,0.00
2022-07-25T00:11:09.503Z,0.00
2022-07-25T00:11:36.554Z,0.00
2022-07-25T00:11:58.271Z,0.00
2022-07-25T00:12:29.450Z,0.00
2022-07-25T00:13:01.335Z,0.00
2022-07-25T00:13:33.998Z,0.00
2022-07-25T00:14:05.506Z,0.00
2022-07-25T00:14:37.587Z,0.00
2022-07-25T00:15:10.447Z,0.00
2022-07-25T00:15:35.713Z,0.00
2022-07-25T00:15:58.696Z,0.00
2022-07-25T00:16:30.404Z,0.00
2022-07-25T00:17:01.183Z,0.00
2022-07-25T00:17:34.374Z,0.00
2022-07-25T00:18:05.926Z,0.00
2022-07-25T00:18:39.095Z,0.00
2022-07-25T00:19:09.948Z,0.00
2022-07-25T00:19:35.633Z,0.00
2022-07-25T00:19:57.848Z,0.00
2022-07-25T00:20:29.722Z,0.00
2022-07-25T00:21:01.246Z,0.00
2022-07-25T00:21:33.206Z,0.00
2022-07-25T00:22:05.449Z,0.00
2022-07-25T00:22:37.561Z,0.00
2022-07-25T00:23:09.446Z,0.00
2022-07-25T00:23:35.581Z,0.00
2022-07-25T00:23:57.562Z,0.00
2022-07-25T00:24:29.410Z,0.00
2022-07-25T00:25:01.861Z,0.00
2022-07-25T00:25:33.189Z,0.00
2022-07-25T00:26:06.134Z,0.00
2022-07-25T00:26:40.289Z,0.00
2022-07-25T00:27:09.429Z,0.00
2022-07-25T00:27:35.648Z,0.00
2022-07-25T00:27:58.416Z,0.00
2022-07-25T00:28:29.365Z,0.00
2022-07-25T00:29:01.146Z,0.00
2022-07-25T00:29:33.345Z,0.00
2022-07-25T00:30:06.970Z,0.00
2022-07-25T00:30:37.831Z,0.00
2022-07-25T00:31:10.368Z,0.00
2022-07-25T00:31:37.524Z,0.00
2022-07-25T00:31:58.366Z,0.00
2022-07-25T00:32:30.354Z,0.00
2022-07-25T00:33:01.260Z,0.00
2022-07-25T00:33:33.181Z,0.00
2022-07-25T00:34:05.534Z,0.00
2022-07-25T00:34:37.470Z,0.00
2022-07-25T00:35:09.767Z,0.00
2022-07-25T00:35:35.918Z,0.00
2022-07-25T00:35:58.156Z,0.00
2022-07-25T00:36:30.103Z,0.00
2022-07-25T00:37:01.169Z,0.00
2022-07-25T00:37:33.238Z,0.00
2022-07-25T00:38:05.473Z,0.00
2022-07-25T00:38:37.487Z,0.00
2022-07-25T00:39:09.462Z,0.00
2022-07-25T00:39:36.524Z,0.00
2022-07-25T00:39:57.523Z,0.00
2022-07-25T00:40:29.915Z,0.00
2022-07-25T00:41:01.689Z,0.00
2022-07-25T00:41:34.497Z,0.00
2022-07-25T00:42:05.214Z,0.00
2022-07-25T00:42:37.705Z,0.00
2022-07-25T00:43:09.521Z,0.00
2022-07-25T00:43:35.800Z,0.00
2022-07-25T00:43:57.526Z,0.00
2022-07-25T00:44:29.307Z,0.00
2022-07-25T00:45:02.833Z,0.00
2022-07-25T00:45:33.160Z,0.00
2022-07-25T00:46:05.395Z,0.00
2022-07-25T00:46:37.829Z,0.00
2022-07-25T00:47:09.458Z,0.00
2022-07-25T00:47:35.664Z,0.00
2022-07-25T00:47:59.623Z,0.00
2022-07-25T00:48:29.404Z,0.00
2022-07-25T00:49:01.310Z,0.00
2022-07-25T00:49:33.282Z,0.00
2022-07-25T00:50:05.667Z,0.00
2022-07-25T00:50:37.514Z,0.00
2022-07-25T00:51:10.504Z,0.00
2022-07-25T00:51:35.579Z,0.00
2022-07-25T00:51:57.512Z,0.00
2022-07-25T00:52:29.688Z,0.00
2022-07-25T00:53:01.261Z,0.00
2022-07-25T00:53:33.441Z,0.00
2022-07-25T00:54:05.668Z,0.00
2022-07-25T00:54:37.627Z,0.00
2022-07-25T00:55:09.933Z,0.00
2022-07-25T00:55:35.687Z,0.00
2022-07-25T00:55:57.915Z,0.00
2022-07-25T00:56:29.256Z,0.00
2022-07-25T00:57:01.228Z,0.00
2022-07-25T00:57:33.172Z,0.00
2022-07-25T00:58:06.385Z,0.00
2022-07-25T00:58:37.504Z,0.00
2022-07-25T00:59:09.351Z,0.00
2022-07-25T00:59:35.656Z,0.00
2022-07-25T00:59:57.593Z,0.00
2022-07-25T01:00:30.359Z,0.00
2022-07-25T01:01:02.049Z,0.00
2022-07-25T01:01:33.566Z,0.00
2022-07-25T01:02:05.362Z,0.00
2022-07-25T01:02:37.633Z,0.00
2022-07-25T01:03:09.414Z,0.00
2022-07-25T01:03:36.930Z,0.00
2022-07-25T01:03:57.912Z,0.00
2022-07-25T01:04:29.582Z,0.00
2022-07-25T01:05:02.071Z,0.00
2022-07-25T01:05:34.243Z,0.00
2022-07-25T01:06:05.295Z,0.00
2022-07-25T01:06:38.669Z,0.00
2022-07-25T01:07:10.323Z,0.00
2022-07-25T01:07:35.648Z,0.00
2022-07-25T01:07:57.504Z,0.00
2022-07-25T01:08:29.453Z,0.00
2022-07-25T01:09:01.126Z,0.00
2022-07-25T01:09:33.184Z,0.00
2022-07-25T01:10:05.833Z,0.00
2022-07-25T01:10:37.537Z,0.00
2022-07-25T01:11:09.364Z,0.00
2022-07-25T01:11:35.622Z,0.00
2022-07-25T01:11:57.886Z,0.00
2022-07-25T01:12:30.399Z,0.00
2022-07-25T01:13:01.170Z,0.00
2022-07-25T01:13:34.018Z,0.00
2022-07-25T01:14:06.630Z,0.00
2022-07-25T01:14:37.525Z,0.00
2022-07-25T01:15:10.445Z,0.00
2022-07-25T01:15:36.438Z,0.00
2022-07-25T01:15:57.996Z,0.00
2022-07-25T01:16:29.703Z,0.00
2022-07-25T01:17:01.242Z,0.00
2022-07-25T01:17:33.202Z,0.00
2022-07-25T01:18:06.217Z,0.00
2022-07-25T01:18:37.561Z,0.00
2022-07-25T01:19:09.402Z,0.00
2022-07-25T01:19:35.599Z,0.00
2022-07-25T01:19:57.700Z,0.00
2022-07-25T01:20:31.762Z,0.00
2022-07-25T01:21:01.282Z,0.00
2022-07-25T01:21:34.268Z,0.00
2022-07-25T01:22:05.555Z,0.00
2022-07-25T01:22:37.527Z,0.00
2022-07-25T01:23:09.425Z,0.00
2022-07-25T01:23:35.557Z,0.00
2022-07-25T01:23:57.588Z,0.00
2022-07-25T01:24:30.469Z,0.00
2022-07-25T01:25:01.797Z,0.00
2022-07-25T01:25:34.160Z,0.00
2022-07-25T01:26:05.177Z,0.00
2022-07-25T01:26:38.540Z,0.00
2022-07-25T01:27:09.497Z,0.00
2022-07-25T01:27:35.669Z,0.00
2022-07-25T01:27:57.521Z,0.00
2022-07-25T01:28:29.638Z,0.00
2022-07-25T01:29:01.271Z,0.00
2022-07-25T01:29:33.249Z,0.00
2022-07-25T01:30:06.061Z,0.00
2022-07-25T01:30:36.486Z,0.00
2022-07-25T01:31:08.548Z,0.00
2022-07-25T01:31:36.032Z,0.00
2022-07-25T01:31:56.789Z,0.00
2022-07-25T01:32:28.610Z,0.00
2022-07-25T01:33:06.995Z,0.00
2022-07-25T01:33:33.564Z,0.00
2022-07-25T01:34:05.622Z,0.00
2022-07-25T01:34:37.207Z,0.00
2022-07-25T01:35:08.942Z,0.00
2022-07-25T01:35:34.670Z,0.00
2022-07-25T01:35:57.242Z,0.00
2022-07-25T01:36:29.395Z,0.00
2022-07-25T01:37:00.511Z,0.00
2022-07-25T01:37:32.850Z,0.00
2022-07-25T01:38:05.111Z,0.00
2022-07-25T01:38:36.778Z,0.00
2022-07-25T01:39:10.503Z,0.00
2022-07-25T01:39:34.649Z,0.00
2022-07-25T01:39:56.952Z,0.00
2022-07-25T01:40:28.936Z,0.00
2022-07-25T01:41:00.536Z,0.00
2022-07-25T01:41:32.741Z,0.00
2022-07-25T01:42:04.168Z,0.00
2022-07-25T01:42:38.946Z,0.00
2022-07-25T01:43:10.825Z,0.00
2022-07-25T01:43:34.742Z,0.00
2022-07-25T01:43:56.803Z,0.00
2022-07-25T01:44:30.319Z,0.00
2022-07-25T01:45:01.015Z,0.00
2022-07-25T01:45:32.343Z,0.00
2022-07-25T01:46:04.475Z,0.00
2022-07-25T01:46:36.942Z,0.00
2022-07-25T01:47:09.135Z,0.00
2022-07-25T01:47:34.691Z,0.00
2022-07-25T01:47:56.709Z,0.00
2022-07-25T01:48:29.702Z,0.00
2022-07-25T01:49:05.124Z,0.00
2022-07-25T01:49:36.396Z,0.00
2022-07-25T01:50:05.681Z,0.00
2022-07-25T01:50:37.694Z,0.00
2022-07-25T01:51:08.193Z,0.00
2022-07-25T01:51:34.872Z,0.00
2022-07-25T01:51:56.914Z,0.00
2022-07-25T01:52:28.260Z,0.00
2022-07-25T01:53:00.307Z,0.00
2022-07-25T01:53:17.969Z,0.00
2022-07-25T01:53:39.942Z,0.00
2022-07-25T01:54:10.180Z,0.00
2022-07-25T01:54:38.643Z,0.00
2022-07-25T01:55:09.654Z,0.00
2022-07-25T01:55:35.772Z,0.00
2022-07-25T01:55:58.057Z,0.00
2022-07-25T01:56:29.180Z,0.00
2022-07-25T01:57:02.470Z,0.00
2022-07-25T01:57:33.173Z,0.00
2022-07-25T01:58:05.280Z,0.00
2022-07-25T01:58:37.586Z,0.00
2022-07-25T01:59:10.249Z,0.00
2022-07-25T01:59:35.687Z,0.00
2022-07-25T01:59:58.448Z,0.00
2022-07-25T02:00:31.237Z,0.00
2022-07-25T02:01:01.301Z,0.00
2022-07-25T02:01:19.316Z,0.00
2022-07-25T02:01:39.549Z,0.00
2022-07-25T02:02:05.181Z,0.00
2022-07-25T02:02:37.864Z,0.00
2022-07-25T02:03:09.168Z,0.00
2022-07-25T02:03:35.618Z,0.00
2022-07-25T02:03:57.903Z,0.00
2022-07-25T02:04:29.314Z,0.00
2022-07-25T02:05:02.326Z,0.00
2022-07-25T02:05:18.380Z,0.00
2022-07-25T02:05:39.038Z,0.00
2022-07-25T02:06:05.129Z,0.00
2022-07-25T02:06:37.613Z,0.00
2022-07-25T02:07:09.192Z,0.00
2022-07-25T02:07:35.646Z,0.00
2022-07-25T02:07:57.619Z,0.00
2022-07-25T02:08:30.288Z,0.00
2022-07-25T02:09:01.205Z,0.00
2022-07-25T02:09:17.763Z,0.00
2022-07-25T02:09:38.806Z,0.00
2022-07-25T02:10:05.640Z,0.00
2022-07-25T02:10:37.530Z,0.00
2022-07-25T02:11:11.133Z,0.00
2022-07-25T02:11:35.769Z,0.00
2022-07-25T02:11:59.319Z,0.00
2022-07-25T02:12:29.166Z,0.00
2022-07-25T02:13:01.242Z,0.00
2022-07-25T02:13:17.750Z,0.00
2022-07-25T02:13:42.592Z,0.00
2022-07-25T02:14:05.393Z,0.00
2022-07-25T02:14:38.576Z,0.00
2022-07-25T02:15:12.185Z,0.00
2022-07-25T02:15:35.832Z,0.00
2022-07-25T02:15:58.863Z,0.00
2022-07-25T02:16:30.443Z,0.00
2022-07-25T02:17:01.311Z,0.00
2022-07-25T02:17:18.725Z,0.00
2022-07-25T02:17:38.826Z,0.00
2022-07-25T02:18:05.160Z,0.00
2022-07-25T02:18:37.631Z,0.00
2022-07-25T02:19:09.548Z,0.00
2022-07-25T02:19:36.456Z,0.00
2022-07-25T02:19:57.918Z,0.00
2022-07-25T02:20:29.506Z,0.00
2022-07-25T02:21:03.216Z,0.00
2022-07-25T02:21:33.084Z,0.00
2022-07-25T02:22:05.406Z,0.00
2022-07-25T02:22:37.631Z,0.00
2022-07-25T02:23:09.183Z,0.00
2022-07-25T02:23:36.167Z,0.00
2022-07-25T02:24:00.361Z,0.00
2022-07-25T02:24:29.234Z,0.00
2022-07-25T02:25:01.846Z,0.00
2022-07-25T02:25:18.640Z,0.00
2022-07-25T02:25:39.880Z,0.00
2022-07-25T02:26:05.979Z,0.00
2022-07-25T02:26:37.576Z,0.00
2022-07-25T02:27:09.208Z,0.00
2022-07-25T02:27:36.492Z,0.00
2022-07-25T02:27:58.207Z,0.00
2022-07-25T02:28:29.119Z,0.00
2022-07-25T02:29:01.309Z,0.00
2022-07-25T02:29:17.696Z,0.00
2022-07-25T02:29:39.511Z,0.00
2022-07-25T02:30:07.862Z,0.00
2022-07-25T02:30:37.701Z,0.00
2022-07-25T02:31:09.301Z,0.00
2022-07-25T02:31:37.185Z,0.00
2022-07-25T02:31:57.613Z,0.00
2022-07-25T02:32:29.068Z,0.00
2022-07-25T02:33:01.245Z,0.00
2022-07-25T02:33:17.567Z,0.00
2022-07-25T02:33:38.866Z,0.00
2022-07-25T02:34:05.467Z,0.00
2022-07-25T02:34:37.588Z,0.00
2022-07-25T02:35:13.333Z,0.00
2022-07-25T02:35:36.050Z,0.00
2022-07-25T02:35:57.894Z,0.00
2022-07-25T02:36:29.187Z,0.00
2022-07-25T02:37:01.410Z,0.00
2022-07-25T02:37:17.684Z,0.00
2022-07-25T02:37:38.931Z,0.00
2022-07-25T02:38:05.169Z,0.00
2022-07-25T02:38:38.597Z,0.00
2022-07-25T02:39:09.278Z,0.00
2022-07-25T02:39:35.663Z,0.00
2022-07-25T02:39:57.640Z,0.00
2022-07-25T02:40:29.735Z,0.00
2022-07-25T02:41:01.471Z,0.00
2022-07-25T02:41:17.733Z,0.00
2022-07-25T02:41:38.989Z,0.00
2022-07-25T02:42:06.158Z,0.00
2022-07-25T02:42:37.628Z,0.00
2022-07-25T02:43:11.156Z,0.00
2022-07-25T02:43:37.455Z,0.00
2022-07-25T02:43:57.618Z,0.00
2022-07-25T02:44:29.081Z,0.00
2022-07-25T02:45:03.011Z,0.00
2022-07-25T02:45:17.625Z,0.00
2022-07-25T02:45:39.030Z,0.00
2022-07-25T02:46:05.162Z,0.00
2022-07-25T02:46:37.570Z,0.00
2022-07-25T02:47:09.100Z,0.00
2022-07-25T02:47:36.517Z,0.00
2022-07-25T02:47:57.676Z,0.00
2022-07-25T02:48:29.157Z,0.00
2022-07-25T02:49:02.061Z,0.00
2022-07-25T02:49:33.128Z,0.00
2022-07-25T02:50:06.343Z,0.00
2022-07-25T02:50:39.664Z,0.00
2022-07-25T02:51:09.250Z,0.00
2022-07-25T02:51:36.183Z,0.00
2022-07-25T02:51:57.643Z,0.00
2022-07-25T02:52:29.228Z,0.00
2022-07-25T02:53:01.278Z,0.00
2022-07-25T02:53:28.970Z,0.00
2022-07-25T02:53:58.532Z,0.00
2022-07-25T02:54:21.384Z,0.00
2022-07-25T02:54:37.894Z,0.00
2022-07-25T02:55:10.360Z,0.00
2022-07-25T02:55:35.653Z,0.00
2022-07-25T02:56:00.483Z,0.00
2022-07-25T02:56:30.223Z,0.00
2022-07-25T02:57:01.294Z,0.00
2022-07-25T02:57:17.734Z,0.00
2022-07-25T02:57:38.666Z,0.00
2022-07-25T02:58:05.370Z,0.00
2022-07-25T02:58:37.580Z,0.00
2022-07-25T02:59:09.914Z,0.00
2022-07-25T02:59:35.805Z,0.00
2022-07-25T02:59:57.606Z,0.00
2022-07-25T03:00:30.194Z,0.00
2022-07-25T03:01:01.147Z,0.00
2022-07-25T03:01:17.781Z,0.00
2022-07-25T03:01:38.726Z,0.00
2022-07-25T03:02:05.352Z,0.00
2022-07-25T03:02:38.673Z,0.00
2022-07-25T03:03:09.248Z,0.00
2022-07-25T03:03:35.726Z,0.00
2022-07-25T03:03:57.686Z,0.00
2022-07-25T03:04:30.071Z,0.00
2022-07-25T03:05:03.065Z,0.00
2022-07-25T03:05:17.627Z,0.00
2022-07-25T03:05:39.401Z,0.00
2022-07-25T03:06:05.363Z,0.00
2022-07-25T03:06:37.704Z,0.00
2022-07-25T03:07:09.146Z,0.00
2022-07-25T03:07:35.670Z,0.00
2022-07-25T03:07:57.731Z,0.00
2022-07-25T03:08:29.140Z,0.00
2022-07-25T03:09:01.402Z,0.00
2022-07-25T03:09:19.040Z,0.00
2022-07-25T03:09:38.682Z,0.00
2022-07-25T03:10:10.455Z,0.00
2022-07-25T03:10:37.573Z,0.00
2022-07-25T03:11:09.155Z,0.00
2022-07-25T03:11:35.787Z,0.00
2022-07-25T03:11:57.741Z,0.00
2022-07-25T03:12:29.096Z,0.00
2022-07-25T03:13:01.178Z,0.00
2022-07-25T03:13:18.560Z,0.00
2022-07-25T03:13:38.657Z,0.00
2022-07-25T03:14:05.496Z,0.00
2022-07-25T03:14:37.833Z,0.00
2022-07-25T03:15:11.289Z,0.00
2022-07-25T03:15:37.558Z,0.00
2022-07-25T03:15:57.905Z,0.00
2022-07-25T03:16:29.203Z,0.00
2022-07-25T03:17:01.147Z,0.00
2022-07-25T03:17:17.662Z,0.00
2022-07-25T03:17:38.879Z,0.00
2022-07-25T03:18:06.377Z,0.00
2022-07-25T03:18:37.625Z,0.00
2022-07-25T03:19:09.473Z,0.00
2022-07-25T03:19:35.692Z,0.00
2022-07-25T03:19:58.665Z,0.00
2022-07-25T03:20:30.911Z,0.00
2022-07-25T03:21:01.355Z,0.36
2022-07-25T03:21:17.627Z,0.00
2022-07-25T03:21:39.520Z,0.00
2022-07-25T03:22:05.996Z,0.00
2022-07-25T03:22:38.638Z,0.00
2022-07-25T03:23:09.246Z,0.85
2022-07-25T03:23:36.504Z,0.36
2022-07-25T03:23:57.807Z,0.85
2022-07-25T03:24:29.283Z,1.22
2022-07-25T03:25:01.861Z,0.85
2022-07-25T03:25:33.259Z,1.22
2022-07-25T03:26:05.318Z,1.22
2022-07-25T03:26:37.678Z,1.22
2022-07-25T03:27:09.532Z,0.85
2022-07-25T03:27:36.572Z,0.85
2022-07-25T03:27:57.791Z,0.85
2022-07-25T03:28:30.214Z,1.71
2022-07-25T03:29:01.332Z,2.08
2022-07-25T03:29:33.382Z,1.71
2022-07-25T03:30:06.931Z,2.08
2022-07-25T03:30:37.910Z,2.57
2022-07-25T03:31:09.381Z,2.08
2022-07-25T03:31:36.753Z,2.57
2022-07-25T03:31:58.017Z,2.94
2022-07-25T03:32:29.167Z,2.94
2022-07-25T03:33:03.882Z,2.94
2022-07-25T03:33:33.253Z,2.94
2022-07-25T03:34:05.502Z,3.43
2022-07-25T03:34:38.978Z,3.43
2022-07-25T03:35:09.946Z,3.43
2022-07-25T03:35:35.775Z,4.28
2022-07-25T03:35:59.039Z,4.28
2022-07-25T03:36:29.255Z,4.77
2022-07-25T03:37:01.253Z,4.77
2022-07-25T03:37:33.495Z,4.28
2022-07-25T03:38:05.324Z,5.63
2022-07-25T03:38:38.045Z,5.63
2022-07-25T03:39:09.660Z,5.14
2022-07-25T03:39:35.761Z,5.63
2022-07-25T03:39:57.813Z,5.63
2022-07-25T03:40:30.749Z,5.63
2022-07-25T03:41:02.354Z,6.48
2022-07-25T03:41:33.266Z,5.63
2022-07-25T03:42:05.367Z,6.48
2022-07-25T03:42:37.724Z,7.34
2022-07-25T03:43:10.420Z,6.85
2022-07-25T03:43:35.936Z,7.34
2022-07-25T03:43:57.860Z,7.34
2022-07-25T03:44:29.326Z,7.70
2022-07-25T03:45:04.062Z,8.19
2022-07-25T03:45:33.346Z,8.56
2022-07-25T03:46:05.310Z,9.54
2022-07-25T03:46:37.726Z,9.05
2022-07-25T03:47:09.307Z,9.54
2022-07-25T03:47:37.968Z,10.39
2022-07-25T03:47:58.164Z,9.91
2022-07-25T03:48:29.346Z,10.39
2022-07-25T03:49:02.255Z,11.25
2022-07-25T03:49:33.236Z,11.25
2022-07-25T03:50:05.736Z,11.25
2022-07-25T03:50:38.033Z,11.62
2022-07-25T03:51:10.367Z,12.48
2022-07-25T03:51:35.907Z,12.48
2022-07-25T03:51:58.663Z,12.11
2022-07-25T03:52:29.361Z,12.97
2022-07-25T03:53:01.297Z,13.33
2022-07-25T03:53:36.301Z,14.31
2022-07-25T03:54:06.821Z,13.82
2022-07-25T03:54:37.673Z,13.33
2022-07-25T03:55:09.778Z,13.82
2022-07-25T03:55:35.783Z,13.82
2022-07-25T03:55:58.219Z,14.31
2022-07-25T03:56:29.198Z,14.68
2022-07-25T03:57:01.409Z,14.68
2022-07-25T03:57:33.179Z,15.53
2022-07-25T03:58:08.397Z,16.39
2022-07-25T03:58:37.891Z,16.39
2022-07-25T03:59:09.317Z,17.25
2022-07-25T03:59:36.752Z,17.25
2022-07-25T03:59:57.867Z,17.73
2022-07-25T04:00:30.246Z,18.11
2022-07-25T04:01:01.412Z,18.11
2022-07-25T04:01:33.279Z,19.08
2022-07-25T04:02:05.292Z,19.94
2022-07-25T04:02:38.236Z,20.31
2022-07-25T04:03:10.270Z,19.94
2022-07-25T04:03:36.671Z,19.94
2022-07-25T04:03:57.886Z,20.31
2022-07-25T04:04:29.233Z,20.31
2022-07-25T04:05:02.982Z,21.16
2022-07-25T04:05:34.345Z,20.80
2022-07-25T04:06:05.267Z,21.16
2022-07-25T04:06:38.516Z,21.65
2022-07-25T04:07:09.309Z,21.65
2022-07-25T04:07:35.842Z,22.02
2022-07-25T04:07:57.762Z,22.51
2022-07-25T04:08:29.257Z,22.87
2022-07-25T04:09:01.217Z,24.22
2022-07-25T04:09:33.885Z,24.22
2022-07-25T04:10:06.020Z,24.71
2022-07-25T04:10:38.561Z,24.71
2022-07-25T04:11:09.391Z,25.56
2022-07-25T04:11:37.359Z,25.56
2022-07-25T04:11:58.332Z,25.56
2022-07-25T04:12:30.544Z,26.42
2022-07-25T04:13:01.750Z,27.28
2022-07-25T04:13:39.905Z,28.14
2022-07-25T04:14:05.494Z,29.48
2022-07-25T04:14:38.718Z,29.48
2022-07-25T04:15:10.483Z,29.85
2022-07-25T04:15:36.387Z,29.85
2022-07-25T04:15:58.287Z,30.34
2022-07-25T04:16:29.382Z,30.70
2022-07-25T04:17:01.456Z,32.05
2022-07-25T04:17:33.435Z,32.42
2022-07-25T04:18:06.260Z,32.90
2022-07-25T04:18:37.821Z,33.39
2022-07-25T04:19:09.709Z,33.39
2022-07-25T04:19:35.878Z,34.25
2022-07-25T04:19:57.975Z,33.76
2022-07-25T04:20:29.614Z,34.25
2022-07-25T04:21:02.392Z,34.25
2022-07-25T04:21:33.288Z,33.76
2022-07-25T04:22:06.136Z,34.25
2022-07-25T04:22:39.301Z,35.11
2022-07-25T04:23:11.399Z,35.48
2022-07-25T04:23:36.029Z,35.97
2022-07-25T04:23:57.846Z,36.33
2022-07-25T04:24:29.367Z,36.82
2022-07-25T04:25:03.559Z,36.82
2022-07-25T04:25:35.531Z,35.48
2022-07-25T04:26:06.431Z,36.82
2022-07-25T04:26:39.090Z,36.82
2022-07-25T04:27:09.230Z,39.39
2022-07-25T04:27:35.827Z,41.96
2022-07-25T04:27:57.835Z,45.87
2022-07-25T04:28:31.433Z,48.07
2022-07-25T04:29:01.360Z,48.93
2022-07-25T04:29:33.490Z,50.28
2022-07-25T04:30:09.140Z,50.65
2022-07-25T04:30:37.846Z,51.14
2022-07-25T04:31:09.208Z,52.85
2022-07-25T04:31:35.955Z,53.34
2022-07-25T04:31:59.708Z,53.70
2022-07-25T04:32:29.094Z,54.56
2022-07-25T04:33:01.254Z,54.56
2022-07-25T04:33:35.139Z,55.41
2022-07-25T04:34:05.691Z,55.90
2022-07-25T04:34:38.509Z,56.76
2022-07-25T04:35:09.592Z,56.27
2022-07-25T04:35:35.952Z,58.97
2022-07-25T04:35:58.845Z,61.17
2022-07-25T04:36:29.192Z,62.02
2022-07-25T04:37:01.286Z,63.24
2022-07-25T04:37:34.078Z,63.24
2022-07-25T04:38:10.128Z,64.59
2022-07-25T04:38:38.183Z,64.10
2022-07-25T04:39:09.223Z,64.10
2022-07-25T04:39:35.959Z,64.59
2022-07-25T04:39:58.802Z,65.45
2022-07-25T04:40:29.493Z,66.31
2022-07-25T04:41:01.248Z,67.65
2022-07-25T04:41:33.234Z,68.51
2022-07-25T04:42:05.247Z,69.36
2022-07-25T04:42:40.410Z,71.07
2022-07-25T04:43:11.457Z,72.79
2022-07-25T04:43:35.703Z,73.65
2022-07-25T04:43:57.843Z,74.50
2022-07-25T04:44:29.279Z,75.48
2022-07-25T04:45:02.961Z,75.48
2022-07-25T04:45:33.209Z,75.48
2022-07-25T04:46:05.394Z,76.34
2022-07-25T04:46:37.789Z,76.70
2022-07-25T04:47:09.243Z,78.41
2022-07-25T04:47:35.861Z,78.90
2022-07-25T04:47:59.151Z,78.90
2022-07-25T04:48:29.123Z,79.76
2022-07-25T04:49:01.361Z,81.10
2022-07-25T04:49:33.950Z,82.33
2022-07-25T04:50:06.415Z,84.04
2022-07-25T04:50:38.081Z,86.73
2022-07-25T04:51:09.354Z,87.59
2022-07-25T04:51:35.821Z,87.96
2022-07-25T04:51:57.847Z,89.79
2022-07-25T04:52:30.023Z,90.65
2022-07-25T04:53:02.193Z,91.87
2022-07-25T04:53:33.146Z,93.22
2022-07-25T04:54:05.481Z,92.73
2022-07-25T04:54:37.758Z,94.56
2022-07-25T04:55:09.563Z,95.42
2022-07-25T04:55:37.779Z,93.22
2022-07-25T04:55:58.195Z,93.22
2022-07-25T04:56:29.220Z,97.50
2022-07-25T04:57:02.113Z,97.50
2022-07-25T04:57:33.421Z,97.99
2022-07-25T04:58:05.523Z,99.70
2022-07-25T04:58:37.726Z,101.05
2022-07-25T04:59:09.223Z,101.41
2022-07-25T04:59:35.869Z,102.27
2022-07-25T04:59:57.783Z,104.48
2022-07-25T05:00:30.179Z,104.96
2022-07-25T05:01:01.409Z,105.82
2022-07-25T05:01:33.224Z,107.53
2022-07-25T05:02:06.310Z,107.53
2022-07-25T05:02:38.151Z,109.24
2022-07-25T05:03:10.240Z,110.10
2022-07-25T05:03:36.953Z,110.59
2022-07-25T05:03:57.822Z,112.30
2022-07-25T05:04:29.117Z,113.65
2022-07-25T05:05:03.055Z,115.36
2022-07-25T05:05:33.202Z,115.36
2022-07-25T05:06:05.132Z,116.22
2022-07-25T05:06:37.780Z,117.07
2022-07-25T05:07:09.683Z,117.93
2022-07-25T05:07:35.836Z,118.78
2022-07-25T05:07:58.542Z,118.78
2022-07-25T05:08:30.238Z,120.50
2022-07-25T05:09:01.432Z,122.34
2022-07-25T05:09:33.418Z,125.27
2022-07-25T05:10:05.933Z,127.96
2022-07-25T05:10:37.950Z,129.19
2022-07-25T05:11:09.826Z,131.88
2022-07-25T05:11:36.806Z,133.10
2022-07-25T05:11:58.144Z,133.95
2022-07-25T05:12:29.262Z,135.30
2022-07-25T05:13:01.410Z,137.51
2022-07-25T05:13:33.459Z,140.07
2022-07-25T05:14:05.559Z,142.27
2022-07-25T05:14:38.813Z,143.99
2022-07-25T05:15:10.793Z,145.70
2022-07-25T05:15:36.960Z,146.56
2022-07-25T05:15:59.520Z,147.05
2022-07-25T05:16:30.575Z,148.76
2022-07-25T05:17:01.314Z,149.61
2022-07-25T05:17:33.469Z,150.96
2022-07-25T05:18:06.611Z,152.19
2022-07-25T05:18:39.565Z,154.75
2022-07-25T05:19:09.601Z,155.73
2022-07-25T05:19:36.906Z,155.73
2022-07-25T05:19:59.708Z,157.81
2022-07-25T05:20:29.606Z,158.67
2022-07-25T05:21:01.433Z,160.87
2022-07-25T05:21:18.869Z,161.36
2022-07-25T05:21:38.998Z,161.73
2022-07-25T05:22:05.311Z,163.07
2022-07-25T05:22:37.940Z,163.93
2022-07-25T05:23:09.507Z,164.78
2022-07-25T05:23:36.007Z,165.27
2022-07-25T05:23:57.990Z,168.21
2022-07-25T05:24:29.219Z,169.07
2022-07-25T05:25:03.158Z,171.27
2022-07-25T05:25:33.347Z,172.98
2022-07-25T05:26:05.429Z,173.47
2022-07-25T05:26:38.563Z,173.84
2022-07-25T05:27:09.946Z,174.33
2022-07-25T05:27:36.013Z,175.19
2022-07-25T05:27:58.013Z,176.53
2022-07-25T05:28:34.513Z,178.24
2022-07-25T05:29:02.469Z,179.59
2022-07-25T05:29:33.692Z,182.53
2022-07-25T05:30:08.108Z,185.22
2022-07-25T05:30:39.939Z,186.44
2022-07-25T05:31:10.372Z,188.27
2022-07-25T05:31:36.782Z,188.64
2022-07-25T05:32:00.157Z,190.84
2022-07-25T05:32:29.214Z,191.21
2022-07-25T05:33:03.188Z,193.05
2022-07-25T05:33:33.377Z,193.90
2022-07-25T05:34:05.707Z,194.76
2022-07-25T05:34:38.876Z,195.98
2022-07-25T05:35:10.769Z,196.47
2022-07-25T05:35:36.858Z,195.98
2022-07-25T05:35:59.054Z,199.04
2022-07-25T05:36:29.274Z,202.10
2022-07-25T05:37:01.554Z,206.38
2022-07-25T05:37:18.878Z,206.38
2022-07-25T05:37:38.972Z,207.73
2022-07-25T05:38:05.393Z,210.78
2022-07-25T05:38:38.162Z,211.15
2022-07-25T05:39:09.393Z,211.15
2022-07-25T05:39:36.094Z,211.15
2022-07-25T05:39:58.136Z,209.07
2022-07-25T05:40:30.570Z,207.36
2022-07-25T05:41:01.378Z,206.38
2022-07-25T05:41:17.995Z,206.87
2022-07-25T05:41:39.346Z,206.01
2022-07-25T05:42:05.359Z,207.36
2022-07-25T05:42:37.995Z,209.44
2022-07-25T05:43:10.216Z,213.84
2022-07-25T05:43:36.086Z,215.07
2022-07-25T05:43:58.000Z,219.47
2022-07-25T05:44:29.192Z,222.53
2022-07-25T05:45:03.099Z,222.53
2022-07-25T05:45:17.971Z,223.75
2022-07-25T05:45:39.366Z,222.53
2022-07-25T05:46:05.481Z,221.18
2022-07-25T05:46:38.003Z,218.98
2022-07-25T05:47:09.517Z,217.27
2022-07-25T05:47:37.362Z,216.41
2022-07-25T05:47:58.372Z,216.41
2022-07-25T05:48:33.055Z,218.61
2022-07-25T05:49:03.428Z,222.53
2022-07-25T05:49:33.292Z,225.10
2022-07-25T05:50:07.754Z,229.38
2022-07-25T05:50:39.479Z,232.93
2022-07-25T05:51:09.950Z,235.49
2022-07-25T05:51:37.146Z,236.84
2022-07-25T05:51:58.129Z,238.56
2022-07-25T05:52:29.867Z,240.27
2022-07-25T05:53:02.362Z,240.76
2022-07-25T05:53:35.450Z,241.12
2022-07-25T05:54:05.953Z,241.12
2022-07-25T05:54:37.884Z,240.76
2022-07-25T05:55:13.321Z,241.12
2022-07-25T05:55:40.740Z,240.27
2022-07-25T05:56:00.057Z,240.27
2022-07-25T05:56:30.154Z,242.83
2022-07-25T05:57:01.559Z,243.69
2022-07-25T05:57:34.495Z,245.52
2022-07-25T05:58:05.880Z,249.44
2022-07-25T05:58:38.201Z,250.30
2022-07-25T05:59:09.764Z,254.21
2022-07-25T05:59:36.177Z,254.21
2022-07-25T05:59:58.965Z,255.44
2022-07-25T06:00:30.629Z,257.64
2022-07-25T06:01:01.518Z,260.69
2022-07-25T06:01:33.764Z,261.92
2022-07-25T06:02:06.558Z,263.76
2022-07-25T06:02:38.390Z,265.83
2022-07-25T06:03:09.695Z,267.55
2022-07-25T06:03:36.127Z,267.55
2022-07-25T06:03:57.903Z,270.61
2022-07-25T06:04:30.517Z,273.30
2022-07-25T06:05:02.368Z,275.37
2022-07-25T06:05:17.942Z,278.07
2022-07-25T06:05:39.524Z,278.93
2022-07-25T06:06:05.343Z,281.00
2022-07-25T06:06:38.052Z,284.55
2022-07-25T06:07:09.349Z,287.98
2022-07-25T06:07:35.921Z,288.47
2022-07-25T06:07:58.022Z,292.38
2022-07-25T06:08:29.314Z,294.95
2022-07-25T06:09:01.358Z,297.52
2022-07-25T06:09:18.799Z,297.52
2022-07-25T06:09:38.985Z,299.23
2022-07-25T06:10:05.962Z,300.58
2022-07-25T06:10:37.945Z,301.44
2022-07-25T06:11:09.940Z,304.00
2022-07-25T06:11:36.006Z,305.35
2022-07-25T06:12:00.841Z,307.92
2022-07-25T06:12:29.261Z,310.12
2022-07-25T06:13:01.495Z,311.47
2022-07-25T06:13:18.018Z,312.32
2022-07-25T06:13:38.986Z,312.32
2022-07-25T06:14:05.750Z,314.03
2022-07-25T06:14:38.538Z,314.40
2022-07-25T06:15:19.752Z,313.54
2022-07-25T06:15:36.756Z,314.03
2022-07-25T06:15:58.455Z,311.47
2022-07-25T06:16:29.254Z,309.27
2022-07-25T06:17:05.162Z,307.06
2022-07-25T06:17:33.347Z,304.86
2022-07-25T06:18:05.434Z,303.15